Time;durP1;ratioP1;P1;durP2;ratioP2;P2;SDS_P1;SDS_P2;PMS_P1;PMS_P2;Temp;Humidity;BMP_temperature;BMP_pressure;BME280_temperature;BME280_humidity;BME280_pressure;Samples;Min_cycle;Max_cycle;Signal;HPM_P1;HPM_P2
2023/09/29 00:00:54;;;;;;;9.77;5.60;;;17.30;99.90;;;-144.05;80.99;56938.03;5050849;28;20029;-84
2023/09/29 00:03:20;;;;;;;9.88;5.72;;;;;;;-144.05;81.41;56918.94;5043728;28;20083;-84
2023/09/29 00:05:49;;;;;;;7.35;5.15;;;18.00;99.90;;;-144.05;81.21;56931.66;5050090;28;20021;-82
2023/09/29 00:08:17;;;;;;;8.57;5.25;;;;;;;-144.05;81.15;56933.78;5050986;28;20457;-83
2023/09/29 00:10:45;;;;;;;12.02;5.78;;;;;;;-144.05;80.89;56940.16;5028967;28;20056;-85
2023/09/29 00:13:12;;;;;;;13.05;5.95;;;;;;;-144.05;80.56;56950.78;5043201;28;20056;-83
2023/09/29 00:15:39;;;;;;;10.70;5.90;;;14.50;99.90;;;-144.05;80.10;56910.44;5036439;28;20034;-83
2023/09/29 00:18:08;;;;;;;8.93;5.38;;;18.90;99.90;;;-144.05;79.70;56940.16;5042858;28;20058;-83
2023/09/29 00:20:36;;;;;;;9.32;5.13;;;17.80;99.90;;;-144.05;79.29;56933.78;5049974;28;20372;-84
2023/09/29 00:23:02;;;;;;;11.90;5.20;;;14.40;99.90;;;-144.05;79.20;56933.78;5045978;28;20093;-82
2023/09/29 00:25:29;;;;;;;11.77;5.28;;;;;;;-144.05;78.88;56923.19;5039859;28;20058;-83
2023/09/29 00:27:57;;;;;;;7.85;4.60;;;14.20;99.90;;;-144.05;78.50;56952.91;5049818;28;20375;-82
2023/09/29 00:30:24;;;;;;;8.73;4.50;;;14.10;99.90;;;-144.05;78.36;56912.56;5048621;28;20025;-82
2023/09/29 00:32:53;;;;;;;7.80;4.72;;;14.30;99.90;;;-144.05;78.19;56938.03;5035753;28;20033;-86
2023/09/29 00:35:27;;;;;;;7.35;4.82;;;14.40;99.90;;;-144.05;78.10;56952.91;5050296;28;20025;-85
2023/09/29 00:37:58;;;;;;;8.65;5.05;;;19.20;99.90;;;-144.05;78.32;56938.03;5031083;28;20473;-84
2023/09/29 00:40:25;;;;;;;8.30;4.78;;;;;;;-144.05;78.38;56929.53;5039038;28;20033;-83
2023/09/29 00:42:52;;;;;;;7.80;4.88;;;19.00;99.90;;;-144.05;78.71;56925.28;5043997;28;20033;-84
2023/09/29 00:45:23;;;;;;;8.80;4.90;;;14.40;99.90;;;-144.05;79.05;56929.53;5050523;28;20037;-83
2023/09/29 00:47:57;;;;;;;8.32;4.55;;;17.70;99.90;;;-144.05;78.88;56921.06;5049523;28;20032;-84
2023/09/29 00:50:28;;;;;;;8.60;5.03;;;17.70;99.90;;;-144.05;78.91;56946.53;5042358;28;20028;-84
2023/09/29 00:52:59;;;;;;;8.35;4.53;;;17.60;99.90;;;-144.05;79.52;56929.53;5036211;28;20020;-83
2023/09/29 00:55:29;;;;;;;8.07;3.92;;;17.50;99.90;;;-144.05;79.43;56948.66;5047731;28;20489;-81
2023/09/29 00:57:59;;;;;;;7.45;4.07;;;17.50;99.90;;;-144.05;79.55;56925.28;5053756;28;20028;-82
2023/09/29 01:02:56;;;;;;;5.75;3.92;;;;;;;-144.05;79.99;56942.28;5040780;28;20489;-82
2023/09/29 01:05:22;;;;;;;8.45;4.63;;;;;;;-144.05;80.69;56946.53;5052282;28;20033;-82
2023/09/29 01:07:51;;;;;;;8.70;4.35;;;;;;;-144.05;80.71;56948.66;5052485;28;20052;-84
2023/09/29 01:10:18;;;;;;;5.78;4.38;;;;;;;-144.05;80.46;56916.81;5047679;28;20482;-82
2023/09/29 01:12:45;;;;;;;9.98;4.47;;;13.50;99.90;;;-144.05;80.82;56938.03;5053460;28;20068;-83
2023/09/29 01:15:13;;;;;;;5.72;3.97;;;14.00;99.90;;;-144.05;79.77;56948.66;5055994;28;20032;-85
2023/09/29 01:17:42;;;;;;;8.48;4.38;;;17.70;99.90;;;-144.05;79.46;56935.91;5059700;28;20032;-83
2023/09/29 01:20:30;;;;;;;10.82;4.40;;;14.40;99.90;;;-144.05;79.45;56948.66;5053510;28;20032;-84
2023/09/29 01:23:04;;;;;;;7.00;4.30;;;13.80;99.90;;;-144.05;79.07;56916.81;5053265;28;20040;-85
2023/09/29 01:25:32;;;;;;;7.80;4.18;;;;;;;-144.05;78.73;56925.28;5046918;28;20108;-84
2023/09/29 01:27:59;;;;;;;9.10;4.35;;;17.80;99.90;;;-144.05;78.51;56916.81;5046163;28;20051;-82
2023/09/29 01:30:27;;;;;;;7.68;3.75;;;;;;;-144.05;78.25;56948.66;5051605;28;20025;-84
2023/09/29 01:32:59;;;;;;;7.03;3.95;;;13.90;99.90;;;-144.05;78.25;56921.06;5048749;28;20493;-84
2023/09/29 01:35:27;;;;;;;6.88;3.42;;;;;;;-144.05;77.97;56931.66;5047709;28;20029;-84
2023/09/29 01:38:00;;;;;;;9.55;3.72;;;14.10;99.90;;;-144.05;78.20;56952.91;5057960;28;20078;-84
2023/09/29 01:40:27;;;;;;;7.53;3.90;;;;;;;-144.05;78.02;56940.16;5049288;28;20028;-84
2023/09/29 01:42:53;;;;;;;7.80;3.65;;;13.70;99.90;;;-144.05;77.73;56933.78;5035062;28;20408;-84
2023/09/29 01:45:21;;;;;;;4.22;3.20;;;17.90;99.90;;;-144.05;77.63;56942.28;5048574;28;20064;-86
2023/09/29 01:47:49;;;;;;;4.72;3.00;;;19.10;99.90;;;-144.05;77.35;56940.16;5063239;28;20029;-83
2023/09/29 01:50:22;;;;;;;6.55;3.35;;;18.00;99.90;;;-144.05;77.29;56921.06;5049946;28;20482;-83
2023/09/29 01:52:50;;;;;;;12.05;3.60;;;18.00;99.90;;;-144.05;77.03;56944.41;5052674;28;20041;-85
2023/09/29 01:55:22;;;;;;;6.35;2.88;;;18.00;99.90;;;-144.05;76.89;56963.53;5051602;28;20098;-85
2023/09/29 01:57:51;;;;;;;7.03;3.13;;;17.90;99.90;;;-144.05;76.77;56963.53;5046527;28;20037;-82
2023/09/29 02:00:24;;;;;;;4.88;3.13;;;18.10;99.90;;;-144.05;77.13;56961.41;5049643;28;20119;-82
2023/09/29 02:02:54;;;;;;;7.20;3.47;;;;;;;-144.05;76.97;56952.91;5044125;28;20386;-83
2023/09/29 02:05:21;;;;;;;6.25;3.65;;;;;;;-144.05;77.17;56942.28;5049522;28;20060;-83
2023/09/29 02:07:49;;;;;;;8.63;2.88;;;18.10;99.90;;;-144.05;76.98;56946.53;5050254;28;20057;-83
2023/09/29 02:10:21;;;;;;;7.50;3.20;;;13.50;99.90;;;-144.05;77.36;56942.28;5050222;28;20041;-82
2023/09/29 02:12:57;;;;;;;5.93;3.65;;;13.50;99.90;;;-144.05;77.01;56955.03;5049805;28;20029;-81
2023/09/29 02:15:24;;;;;;;6.18;2.92;;;13.80;99.90;;;-144.05;76.75;56969.91;5040301;28;20084;-82
2023/09/29 02:17:52;;;;;;;7.30;3.67;;;;;;;-144.05;76.64;56906.19;5048216;28;20108;-82
2023/09/29 02:20:20;;;;;;;6.22;3.58;;;13.60;99.90;;;-144.05;76.88;56972.03;5046461;28;20031;-81
2023/09/29 02:22:48;;;;;;;6.15;2.90;;;;;;;-144.05;76.58;56921.06;5044057;28;20117;-83
2023/09/29 02:25:15;;;;;;;4.32;2.85;;;13.90;99.90;;;-144.05;75.96;56946.53;5051525;28;20541;-83
2023/09/29 02:27:42;;;;;;;9.75;3.03;;;19.50;99.90;;;-144.05;75.92;56957.16;5047364;28;20405;-83
2023/09/29 02:30:11;;;;;;;7.47;3.83;;;13.60;99.90;;;-144.05;75.96;56957.16;5044940;28;20032;-83
2023/09/29 02:32:41;;;;;;;7.22;3.38;;;13.80;99.90;;;-144.05;76.20;56948.66;5044914;28;20150;-81
2023/09/29 02:35:10;;;;;;;3.22;2.65;;;18.30;99.90;;;-144.05;75.89;56918.94;5044048;28;20071;-84
2023/09/29 02:37:37;;;;;;;3.90;2.55;;;;;;;-144.05;75.93;56923.19;5039150;28;20087;-82
2023/09/29 02:40:13;;;;;;;5.30;2.58;;;18.20;99.90;;;-144.05;76.08;56933.78;5054337;28;20066;-82
2023/09/29 02:42:40;;;;;;;3.70;2.55;;;18.20;99.90;;;-144.05;76.06;56946.53;5046423;28;20031;-84
2023/09/29 02:45:07;;;;;;;8.35;2.72;;;;;;;-144.05;75.69;56942.28;5039284;28;20482;-82
2023/09/29 02:47:39;;;;;;;4.97;3.10;;;13.70;99.90;;;-144.05;75.60;56950.78;5048484;28;20056;-83
2023/09/29 02:50:09;;;;;;;8.18;3.20;;;18.30;99.90;;;-144.05;75.73;56925.28;5050515;28;20040;-82
2023/09/29 02:52:39;;;;;;;4.57;2.90;;;14.10;99.90;;;-144.05;75.72;56948.66;5040558;28;20051;-83
2023/09/29 02:55:14;;;;;;;5.18;3.05;;;13.80;99.90;;;-144.05;75.73;56944.41;5050858;28;20087;-83
2023/09/29 02:57:41;;;;;;;5.13;2.78;;;;;;;-144.05;75.96;56946.53;5048748;28;20521;-83
2023/09/29 03:00:23;;;;;;;6.57;3.25;;;18.40;99.90;;;-144.05;75.82;56946.53;5054287;28;20044;-85
2023/09/29 03:02:53;;;;;;;7.63;3.00;;;;;;;-144.05;76.04;56935.91;5067549;28;20065;-84
2023/09/29 03:05:21;;;;;;;8.30;3.13;;;13.70;99.90;;;-144.05;75.94;56921.06;5051334;28;20029;-85
2023/09/29 03:07:48;;;;;;;5.10;3.17;;;;;;;-144.05;76.11;56921.06;5049947;28;20052;-84
2023/09/29 03:10:17;;;;;;;6.20;3.83;;;18.30;99.90;;;-144.05;75.96;56974.16;5042508;28;20029;-85
2023/09/29 03:12:44;;;;;;;5.90;3.25;;;18.30;99.90;;;-144.05;76.20;56957.16;5044095;28;20380;-84
2023/09/29 03:15:15;;;;;;;6.72;3.42;;;18.20;99.90;;;-144.05;76.24;56955.03;5049173;28;20082;-85
2023/09/29 03:17:46;;;;;;;8.63;3.30;;;18.20;99.90;;;-144.05;76.05;56944.41;5046074;28;20025;-82
2023/09/29 03:20:14;;;;;;;7.80;2.70;;;;;;;-144.05;75.88;56933.78;5047413;28;20025;-82
2023/09/29 03:22:47;;;;;;;6.15;3.38;;;18.20;99.90;;;-144.05;76.03;56950.78;5039493;28;20430;-82
2023/09/29 03:25:19;;;;;;;6.13;3.10;;;;;;;-144.05;76.21;56923.19;5045726;28;20474;-83
2023/09/29 03:27:45;;;;;;;9.35;3.35;;;13.70;99.90;;;-144.05;76.20;56948.66;5047128;28;20032;-82
2023/09/29 03:30:13;;;;;;;4.15;3.10;;;14.10;99.90;;;-144.05;76.21;56916.81;5037103;28;20457;-83
2023/09/29 03:32:39;;;;;;;6.95;3.38;;;;;;;-144.05;76.47;56935.91;5043082;28;20037;-83
2023/09/29 03:35:08;;;;;;;4.40;2.70;;;14.50;99.90;;;-144.05;76.22;56967.78;5046958;28;20461;-82
2023/09/29 03:37:39;;;;;;;5.65;3.28;;;;;;;-144.05;75.77;56950.78;5050433;28;20496;-84
2023/09/29 03:40:08;;;;;;;8.95;2.92;;;14.80;99.90;;;-144.05;76.02;56938.03;5045722;28;20033;-82
2023/09/29 03:42:41;;;;;;;6.22;3.00;;;18.20;99.90;;;-144.05;75.71;56946.53;5037336;28;20112;-84
2023/09/29 03:45:09;;;;;;;8.50;3.45;;;14.70;99.90;;;-144.05;75.97;56925.28;5049353;28;20029;-83
2023/09/29 03:47:35;;;;;;;5.55;2.80;;;;;;;-144.05;75.99;56938.03;5045314;28;20080;-82
2023/09/29 03:50:07;;;;;;;8.52;3.13;;;15.00;99.90;;;-144.05;75.75;56969.91;5050429;28;20036;-83
2023/09/29 03:52:33;;;;;;;4.97;2.90;;;;;;;-144.05;75.67;56942.28;5046013;28;20060;-84
2023/09/29 03:54:59;;;;;;;4.97;3.05;;;;;;;-144.05;75.30;56944.41;5040808;28;20032;-83
2023/09/29 03:57:26;;;;;;;6.13;3.00;;;;;;;-144.05;75.51;56933.78;5029348;28;20160;-83
2023/09/29 03:59:52;;;;;;;7.63;3.17;;;;;;;-144.05;75.40;56959.28;5048494;28;20474;-82
2023/09/29 04:02:20;;;;;;;8.90;3.20;;;19.40;99.90;;;-144.05;75.62;56927.41;5030093;28;20440;-83
2023/09/29 04:04:47;;;;;;;6.25;3.10;;;14.50;99.90;;;-144.05;76.19;56952.91;5048926;28;20023;-82
2023/09/29 04:07:15;;;;;;;6.03;3.08;;;14.60;99.90;;;-144.05;76.12;56931.66;5048152;28;20032;-84
2023/09/29 04:09:41;;;;;;;5.88;2.90;;;;;;;-144.05;75.61;56940.16;5035095;28;20084;-84
2023/09/29 04:12:07;;;;;;;4.70;2.80;;;19.60;99.90;;;-144.05;75.72;56961.41;5063779;28;20120;-83
2023/09/29 04:14:33;;;;;;;8.48;3.42;;;;;;;-144.05;75.21;56931.66;5042366;28;20100;-85
2023/09/29 04:16:59;;;;;;;5.82;2.97;;;;;;;-144.05;75.19;56959.28;5038861;28;20028;-85
2023/09/29 04:19:25;;;;;;;4.78;2.83;;;14.50;99.90;;;-144.05;75.28;56948.66;5040299;28;20401;-84
2023/09/29 04:21:51;;;;;;;4.80;2.72;;;;;;;-144.05;75.73;56944.41;5045554;28;20061;-84
2023/09/29 04:24:18;;;;;;;6.55;3.25;;;;;;;-144.05;76.24;56942.28;5048138;28;20055;-82
2023/09/29 04:26:43;;;;;;;11.43;3.40;;;14.50;99.90;;;-144.05;76.31;56950.78;5043962;28;20030;-81
2023/09/29 04:29:10;;;;;;;7.20;3.00;;;;;;;-144.05;76.61;56955.03;5048181;28;20036;-82
2023/09/29 04:31:36;;;;;;;5.60;3.40;;;19.30;99.90;;;-144.05;76.52;56946.53;5044905;28;20482;-83
2023/09/29 04:34:02;;;;;;;9.27;3.40;;;;;;;-144.05;76.59;56929.53;5041731;28;20063;-83
2023/09/29 04:36:28;;;;;;;4.82;2.97;;;19.50;99.90;;;-144.05;76.36;56944.41;5040037;28;20104;-83
2023/09/29 04:38:54;;;;;;;8.10;4.05;;;14.70;99.90;;;-144.05;76.86;56957.16;5046337;28;20076;-85
2023/09/29 04:41:20;;;;;;;5.80;3.25;;;;;;;-144.05;77.26;56967.78;5054567;28;20112;-83
2023/09/29 04:43:46;;;;;;;6.00;3.28;;;14.30;99.90;;;-144.05;76.57;56938.03;5053093;28;20070;-85
2023/09/29 04:46:13;;;;;;;6.03;3.58;;;14.40;99.90;;;-144.05;76.46;56940.16;5052814;28;20090;-85
2023/09/29 04:48:38;;;;;;;9.70;3.97;;;14.50;99.90;;;-144.05;77.28;56944.41;5045786;28;20477;-83
2023/09/29 04:51:05;;;;;;;9.52;3.65;;;;;;;-144.05;77.24;56935.91;5039331;28;20043;-83
2023/09/29 04:53:31;;;;;;;7.95;3.80;;;;;;;-144.05;77.21;56931.66;5042457;28;20104;-86
2023/09/29 04:55:59;;;;;;;8.32;3.28;;;14.50;99.90;;;-144.05;76.67;56946.53;5050901;28;20055;-83
2023/09/29 04:58:25;;;;;;;5.50;2.85;;;19.30;99.90;;;-144.05;76.47;56938.03;5044844;28;20402;-83
2023/09/29 05:00:52;;;;;;;5.10;3.15;;;14.50;99.90;;;-144.05;76.85;56946.53;5046730;28;20031;-82
2023/09/29 05:03:18;;;;;;;7.07;3.28;;;19.20;99.90;;;-144.05;76.72;56944.41;5048964;28;20025;-85
2023/09/29 05:05:46;;;;;;;5.90;3.10;;;18.00;99.90;;;-144.05;77.29;56938.03;5045352;28;20029;-83
2023/09/29 05:08:15;;;;;;;8.68;3.20;;;18.00;99.90;;;-144.05;77.69;56959.28;5047061;28;20025;-83
2023/09/29 05:10:41;;;;;;;4.03;2.58;;;19.30;99.90;;;-144.05;77.88;56929.53;5044936;28;20074;-83
2023/09/29 05:13:07;;;;;;;9.73;3.67;;;14.40;99.90;;;-144.05;78.28;56944.41;5046438;28;20029;-85
2023/09/29 05:15:36;;;;;;;7.75;3.17;;;18.70;99.90;;;-144.05;78.67;56948.66;5042757;28;20055;-86
2023/09/29 05:18:03;;;;;;;4.97;2.95;;;14.30;99.90;;;-144.05;78.42;56946.53;5053744;28;20048;-85
2023/09/29 05:20:29;;;;;;;5.82;3.13;;;;;;;-144.05;78.09;56916.81;5045182;28;20078;-83
2023/09/29 05:22:55;;;;;;;6.38;3.47;;;;;;;-144.05;78.45;56931.66;5054788;28;20045;-83
2023/09/29 05:25:22;;;;;;;6.15;3.13;;;;;;;-144.05;78.36;56927.41;5058096;28;20033;-84
2023/09/29 05:27:48;;;;;;;6.55;3.55;;;;;;;-144.05;77.93;56942.28;5063314;28;20021;-85
2023/09/29 05:30:18;;;;;;;6.78;3.38;;;18.00;99.90;;;-144.05;77.98;56946.53;5059643;28;20040;-83
2023/09/29 05:32:43;;;;;;;8.77;3.38;;;19.30;99.90;;;-144.05;77.83;56946.53;5061416;28;20036;-84
2023/09/29 05:35:16;;;;;;;9.60;3.30;;;14.40;99.90;;;-144.05;77.86;56950.78;5044374;28;20449;-86
2023/09/29 05:37:43;;;;;;;5.88;3.33;;;;;;;-144.05;78.01;56965.66;5044589;28;20079;-81
2023/09/29 05:40:09;;;;;;;6.47;2.95;;;14.60;99.90;;;-144.05;77.41;56955.03;5042419;28;20717;-87
2023/09/29 05:42:36;;;;;;;7.45;3.38;;;;;;;-144.05;77.73;56929.53;5050208;28;20036;-82
2023/09/29 05:45:02;;;;;;;6.85;2.88;;;;;;;-144.05;77.86;56946.53;5063002;28;20029;-84
2023/09/29 05:47:28;;;;;;;6.07;2.70;;;;;;;-144.05;77.62;56980.53;5052652;28;20024;-86
2023/09/29 05:49:54;;;;;;;6.22;3.20;;;19.40;99.90;;;-144.05;77.59;56959.28;5043383;28;20026;-83
2023/09/29 05:52:20;;;;;;;7.53;3.17;;;;;;;-144.05;77.66;56957.16;5064744;28;20124;-83
2023/09/29 05:54:46;;;;;;;6.35;2.95;;;14.10;99.90;;;-144.05;78.06;56950.78;5046833;28;20029;-84
2023/09/29 05:57:12;;;;;;;8.32;3.45;;;19.00;99.90;;;-144.05;77.86;56955.03;5050817;28;20063;-83
2023/09/29 05:59:38;;;;;;;7.65;3.28;;;;;;;-144.05;77.77;56929.53;5048378;28;20041;-81
2023/09/29 06:02:04;;;;;;;3.75;3.10;;;;;;;-144.05;77.71;56963.53;5038661;28;20021;-81
2023/09/29 06:04:33;;;;;;;4.57;3.28;;;19.30;99.90;;;-144.05;77.33;56957.16;5046681;28;20036;-83
2023/09/29 06:06:59;;;;;;;5.00;2.80;;;14.40;99.90;;;-144.05;76.77;56965.66;5047240;28;20486;-82
2023/09/29 06:09:26;;;;;;;5.78;3.05;;;14.70;99.90;;;-144.05;76.42;56946.53;5043931;28;20037;-81
2023/09/29 06:11:51;;;;;;;7.53;2.75;;;14.30;99.90;;;-144.05;75.93;56972.03;5045481;28;20017;-84
2023/09/29 06:14:18;;;;;;;5.32;3.33;;;;;;;-144.05;75.75;56929.53;5048268;28;20063;-84
2023/09/29 06:16:43;;;;;;;6.00;2.97;;;14.90;99.90;;;-144.05;75.05;56931.66;5050456;28;20079;-83
2023/09/29 06:19:10;;;;;;;4.65;2.50;;;;;;;-144.05;74.35;56946.53;5045600;28;20037;-82
2023/09/29 06:21:36;;;;;;;7.78;2.70;;;;;;;-144.05;73.85;56938.03;5045755;28;20024;-83
2023/09/29 06:24:03;;;;;;;7.45;2.70;;;;;;;-144.05;73.35;56946.53;5063241;28;20116;-83
2023/09/29 06:26:29;;;;;;;5.18;2.63;;;20.20;99.90;;;-144.05;72.87;56933.78;5055992;28;20028;-82
2023/09/29 06:28:56;;;;;;;5.43;2.20;;;15.60;99.90;;;-144.05;72.83;56972.03;5052282;28;20060;-84
2023/09/29 06:31:22;;;;;;;4.40;2.63;;;;;;;-144.05;72.44;56972.03;5049919;28;20021;-88
2023/09/29 06:33:48;;;;;;;5.35;2.80;;;;;;;-144.05;72.45;56931.66;5037568;28;20030;-83
2023/09/29 06:36:14;;;;;;;5.80;2.58;;;15.50;99.90;;;-144.05;71.83;56948.66;5048449;28;20037;-83
2023/09/29 06:38:40;;;;;;;5.05;2.55;;;20.10;99.90;;;-144.05;71.62;56950.78;5056264;28;20040;-82
2023/09/29 06:41:07;;;;;;;7.88;2.28;;;20.50;99.90;;;-144.05;71.61;56959.28;5067550;28;20116;-83
2023/09/29 06:43:33;;;;;;;4.95;2.92;;;;;;;-144.05;71.15;56952.91;5046087;28;20036;-83
2023/09/29 06:45:59;;;;;;;3.53;2.00;;;16.10;99.90;;;-144.05;70.66;56950.78;5045337;28;20026;-82
2023/09/29 06:48:26;;;;;;;7.25;2.42;;;;;;;-144.05;70.46;56940.16;5041977;28;20040;-83
2023/09/29 06:50:52;;;;;;;5.50;2.58;;;;;;;-144.05;70.60;56935.91;5044183;28;20029;-83
2023/09/29 06:53:18;;;;;;;4.35;2.38;;;16.00;99.90;;;-144.05;70.27;56967.78;5046821;28;20196;-81
2023/09/29 06:55:44;;;;;;;3.78;2.55;;;20.50;99.90;;;-144.05;71.53;56955.03;5046561;28;20032;-83
2023/09/29 06:58:10;;;;;;;5.32;2.25;;;;;;;-144.05;70.72;56955.03;5042130;28;20040;-82
2023/09/29 07:00:36;;;;;;;4.72;2.78;;;;;;;-144.05;69.48;56982.66;5047443;28;20061;-83
2023/09/29 07:03:02;;;;;;;7.70;2.45;;;16.50;99.90;;;-144.05;68.64;56942.28;5040147;28;20032;-82
2023/09/29 07:05:29;;;;;;;6.30;2.30;;;;;;;-144.05;68.23;56959.28;5027006;28;20530;-84
2023/09/29 07:07:55;;;;;;;4.28;2.55;;;17.10;99.90;;;-144.05;68.03;56967.78;5045594;28;20031;-84
2023/09/29 07:10:21;;;;;;;3.55;2.22;;;21.40;99.90;;;-144.05;67.46;56972.03;5042858;28;20112;-83
2023/09/29 07:12:47;;;;;;;5.45;2.20;;;;;;;-144.05;67.51;56993.25;5037310;28;20029;-84
2023/09/29 07:15:13;;;;;;;4.45;2.30;;;21.40;99.90;;;-144.05;67.68;56961.41;5026752;28;20034;-84
2023/09/29 07:17:38;;;;;;;5.82;3.00;;;16.90;99.90;;;-144.05;68.14;56965.66;5045654;28;20036;-83
2023/09/29 07:20:05;;;;;;;7.35;2.83;;;21.60;99.90;;;-144.05;68.70;56927.41;5040190;28;20033;-83
2023/09/29 07:22:31;;;;;;;7.72;2.30;;;21.50;99.90;;;-144.05;68.50;56950.78;5044855;28;20388;-83
2023/09/29 07:24:57;;;;;;;6.03;2.45;;;;;;;-144.05;69.53;56974.16;5042781;28;20029;-85
2023/09/29 07:27:26;;;;;;;4.57;2.13;;;21.20;99.90;;;-144.05;70.05;56963.53;5044388;28;20122;-84
2023/09/29 07:29:51;;;;;;;4.53;2.45;;;21.30;99.90;;;-144.05;70.19;56986.91;5040217;28;20036;-82
2023/09/29 07:32:17;;;;;;;5.60;2.53;;;16.80;99.90;;;-144.05;70.42;56948.66;5046360;28;20029;-82
2023/09/29 07:34:44;;;;;;;6.13;2.30;;;21.80;99.90;;;-144.05;70.42;56969.91;5044165;28;20028;-84
2023/09/29 07:37:10;;;;;;;9.45;2.83;;;;;;;-144.05;70.34;56978.41;5027087;28;20498;-85
2023/09/29 07:39:36;;;;;;;7.03;2.20;;;;;;;-144.05;70.73;56940.16;5047380;28;20029;-82
2023/09/29 07:42:02;;;;;;;8.93;3.22;;;;;;;-144.05;71.13;56967.78;5035475;28;20026;-83
2023/09/29 07:44:29;;;;;;;7.68;2.40;;;;;;;-144.05;71.08;56944.41;5049904;28;20044;-83
2023/09/29 07:46:55;;;;;;;8.85;2.20;;;16.40;99.90;;;-144.05;70.78;56984.78;5050986;28;20029;-84
2023/09/29 07:49:23;;;;;;;6.72;2.58;;;16.70;99.90;;;-144.05;70.58;56974.16;5055871;28;20032;-83
2023/09/29 07:51:49;;;;;;;7.07;3.03;;;;;;;-144.05;70.51;56963.53;5050384;28;20022;-83
2023/09/29 07:54:16;;;;;;;5.07;2.20;;;16.50;99.90;;;-144.05;69.62;56952.91;5045103;28;20036;-84
2023/09/29 07:56:47;;;;;;;6.25;2.63;;;;;;;-144.05;68.57;56967.78;5045518;28;20529;-83
2023/09/29 07:59:14;;;;;;;5.15;2.50;;;17.10;99.90;;;-144.05;68.18;56957.16;5040658;28;20029;-82
2023/09/29 08:01:42;;;;;;;4.60;2.20;;;;;;;-144.05;67.78;56961.41;5043243;28;20080;-82
2023/09/29 08:04:10;;;;;;;6.18;2.30;;;;;;;-144.05;67.83;56969.91;5052070;28;20104;-86
2023/09/29 08:06:36;;;;;;;4.65;2.45;;;16.90;99.90;;;-144.05;67.46;56997.50;5043375;28;20055;-83
2023/09/29 08:09:03;;;;;;;6.68;2.65;;;;;;;-144.05;68.18;56974.16;5048770;28;20422;-83
2023/09/29 08:11:30;;;;;;;5.78;2.60;;;;;;;-144.05;68.28;56969.91;5042746;28;20028;-85
2023/09/29 08:13:56;;;;;;;8.10;2.58;;;17.20;99.90;;;-144.05;68.38;56974.16;5051265;28;20651;-83
2023/09/29 08:16:22;;;;;;;7.22;2.50;;;17.20;99.90;;;-144.05;68.68;56982.66;5045348;28;20044;-83
2023/09/29 08:18:48;;;;;;;6.22;2.17;;;;;;;-144.05;68.29;56969.91;5038419;28;20028;-83
2023/09/29 08:21:14;;;;;;;6.38;3.03;;;18.40;99.90;;;-144.05;67.26;56967.78;5041720;28;20481;-83
2023/09/29 08:23:40;;;;;;;9.38;2.67;;;;;;;-144.05;65.03;57003.88;5045414;28;20037;-84
2023/09/29 08:26:06;;;;;;;8.55;2.72;;;24.20;99.90;;;-144.05;61.55;57006.00;5047371;28;20060;-84
2023/09/29 08:28:32;;;;;;;7.25;2.28;;;24.30;99.90;;;-144.05;60.40;56995.38;5046988;28;20548;-84
2023/09/29 08:30:57;;;;;;;8.23;2.20;;;23.20;99.90;;;-144.05;59.92;57001.75;5051970;28;20036;-84
2023/09/29 08:33:27;;;;;;;5.15;2.58;;;25.00;99.90;;;-144.05;59.79;57018.75;5034473;28;20017;-84
2023/09/29 08:35:56;;;;;;;6.20;2.70;;;19.90;99.90;;;-144.05;59.14;57018.75;5047205;28;20021;-83
2023/09/29 08:38:22;;;;;;;3.70;2.28;;;24.40;99.90;;;-144.05;58.81;57048.50;5048260;28;20481;-84
2023/09/29 08:40:55;;;;;;;5.88;2.20;;;;;;;-144.05;61.06;57020.88;5041844;28;20029;-84
2023/09/29 08:43:23;;;;;;;3.30;2.33;;;;;;;-144.05;61.65;57014.50;5043799;28;20027;-84
2023/09/29 08:45:54;;;;;;;3.70;1.90;;;;;;;-144.05;62.21;57001.75;5045282;28;20027;-85
2023/09/29 08:48:19;;;;;;;5.57;2.65;;;23.90;99.90;;;-144.05;61.53;57014.50;5036212;28;20030;-84
2023/09/29 08:50:55;;;;;;;7.40;2.47;;;24.30;99.90;;;-144.05;61.69;57033.63;5045149;28;20078;-82
2023/09/29 08:53:25;;;;;;;;;;;23.00;99.90;;;-144.05;59.70;57025.13;5041274;28;20052;-82
2023/09/29 08:55:56;;;;;;;4.55;2.30;;;23.80;99.90;;;-144.05;57.83;57023.00;5052252;28;19909;-80
2023/09/29 08:58:23;;;;;;;8.73;2.28;;;23.70;99.90;;;-144.05;58.20;57029.38;5040351;28;20033;-83
2023/09/29 09:00:50;;;;;;;5.18;2.40;;;20.20;99.90;;;-144.05;58.22;57042.13;5039602;28;20425;-82
2023/09/29 09:03:17;;;;;;;7.50;2.40;;;25.20;99.90;;;-144.05;57.87;57018.75;5035660;28;20021;-84
2023/09/29 09:05:44;;;;;;;9.80;2.42;;;20.70;99.90;;;-144.05;57.53;57031.50;5040788;28;20018;-82
2023/09/29 09:08:11;;;;;;;6.10;2.45;;;21.20;99.90;;;-144.05;55.96;57063.34;5043763;28;20079;-85
2023/09/29 09:10:38;;;;;;;6.68;2.40;;;26.00;99.90;;;-144.05;55.14;57059.09;5041001;28;20026;-83
2023/09/29 09:13:05;;;;;;;9.95;2.78;;;24.60;99.90;;;-144.05;55.92;57067.59;5045889;28;20053;-84
2023/09/29 09:15:31;;;;;;;4.35;2.15;;;21.00;99.90;;;-144.05;56.96;57063.34;5036339;28;20052;-85
2023/09/29 09:17:58;;;;;;;3.78;2.22;;;20.50;99.90;;;-144.05;57.97;57025.13;5045515;28;20105;-85
2023/09/29 09:20:24;;;;;;;6.35;2.70;;;;;;;-144.05;58.34;57040.00;5049898;28;20025;-84
2023/09/29 09:23:03;;;;;;;6.32;2.10;;;20.20;99.90;;;-144.05;59.02;57042.13;5048760;28;20029;-82
2023/09/29 09:25:42;;;;;;;2.92;1.95;;;24.80;99.90;;;-144.05;58.70;57044.25;5046289;28;20035;-82
2023/09/29 09:28:19;;;;;;;4.55;2.60;;;20.50;99.90;;;-144.05;58.77;57046.38;5056330;28;20079;-81
2023/09/29 09:30:59;;;;;;;7.45;2.55;;;24.60;99.90;;;-144.05;57.90;57044.25;5042809;28;20063;-81
2023/09/29 09:33:31;;;;;;;6.20;2.35;;;23.20;99.90;;;-144.05;58.71;57016.63;5044052;28;20490;-86
2023/09/29 09:36:10;;;;;;;7.20;2.78;;;24.30;99.90;;;-144.05;59.33;57025.13;5048084;28;20029;-83
2023/09/29 09:38:37;;;;;;;16.45;3.83;;;24.30;99.90;;;-144.05;59.63;57025.13;5051287;28;20055;-81
2023/09/29 09:41:06;;;;;;;7.00;2.17;;;23.00;99.90;;;-144.05;59.22;57033.63;5043465;28;20456;-82
2023/09/29 09:43:35;;;;;;;6.93;2.58;;;;;;;-144.05;59.74;57001.75;5043463;28;20022;-84
2023/09/29 09:46:04;;;;;;;4.85;2.47;;;20.10;99.90;;;-144.05;59.52;57031.50;5047838;28;20025;-84
2023/09/29 09:48:51;;;;;;;5.45;2.17;;;20.70;99.90;;;-144.05;60.02;57052.75;5052295;28;20029;-81
2023/09/29 09:51:36;;;;;;;7.28;2.45;;;23.20;99.90;;;-144.05;59.12;57018.75;5043821;28;20028;-86
2023/09/29 09:54:04;;;;;;;5.32;2.55;;;23.30;99.90;;;-144.05;59.43;57040.00;5051565;28;20025;-84
2023/09/29 09:57:06;;;;;;;4.18;2.20;;;20.30;99.90;;;-144.05;59.09;57014.50;5044450;28;20037;-84
2023/09/29 09:59:33;;;;;;;4.00;2.58;;;20.60;99.90;;;-144.05;58.78;57025.13;5043619;28;20020;-83
2023/09/29 10:02:06;;;;;;;5.53;2.90;;;23.30;99.90;;;-144.05;59.32;57052.75;5045060;28;20398;-82
2023/09/29 10:04:36;;;;;;;7.50;2.20;;;19.90;99.90;;;-144.05;58.80;57052.75;5049816;28;20029;-84
2023/09/29 10:07:04;;;;;;;6.30;2.60;;;19.70;99.90;;;-144.05;58.85;57008.13;5044637;28;20025;-84
2023/09/29 10:09:48;;;;;;;4.35;2.65;;;20.10;99.90;;;-144.05;58.66;57046.38;5043423;28;20053;-84
2023/09/29 10:12:31;;;;;;;5.07;2.22;;;19.50;99.90;;;-144.05;59.26;57014.50;5056797;28;20051;-84
2023/09/29 10:14:58;;;;;;;4.70;2.50;;;23.50;99.90;;;-144.05;57.80;57008.13;5044690;28;20477;-85
2023/09/29 10:17:37;;;;;;;5.95;2.50;;;20.70;99.90;;;-144.05;57.12;57018.75;5047474;28;20378;-85
2023/09/29 10:20:04;;;;;;;7.70;2.53;;;20.90;99.90;;;-144.05;56.49;57067.59;5051263;28;20470;-83
2023/09/29 10:22:31;;;;;;;5.72;2.67;;;20.40;99.90;;;-144.05;56.76;57054.88;5042352;28;20037;-86
2023/09/29 10:25:09;;;;;;;3.38;2.28;;;;;;;-144.05;56.20;57050.63;5044296;28;20037;-85
2023/09/29 10:27:34;;;;;;;6.70;2.40;;;20.30;99.90;;;-144.05;56.95;57010.25;5046140;28;20025;-85
2023/09/29 10:30:16;;;;;;;10.63;2.78;;;19.80;99.90;;;-144.05;56.71;57033.63;5044005;28;20517;-84
2023/09/29 10:32:47;;;;;;;3.72;2.47;;;;;;;-144.05;56.38;57033.63;5039982;28;20100;-83
2023/09/29 10:35:19;;;;;;;3.95;2.60;;;25.50;99.90;;;-144.05;56.00;57012.38;5045552;28;20032;-82